Time;durP1;ratioP1;P1;durP2;ratioP2;P2;SDS_P1;SDS_P2;PMS_P1;PMS_P2;Temp;Humidity;BMP_temperature;BMP_pressure;BME280_temperature;BME280_humidity;BME280_pressure;Samples;Min_cycle;Max_cycle;Signal;HPM_P1;HPM_P2
2021/08/28 00:01:00;;;;;;;8.08;5.97;;;;;;;20.80;100.00;100876.58;1675281;85;21019;-86
2021/08/28 00:03:26;;;;;;;7.65;5.75;;;;;;;20.80;100.00;100883.17;1675352;85;21127;-87
2021/08/28 00:05:53;;;;;;;8.58;6.05;;;;;;;20.81;100.00;100883.00;1675621;85;21057;-89
2021/08/28 00:08:20;;;;;;;7.42;6.50;;;;;;;20.80;100.00;100884.01;1675441;85;21525;-92
2021/08/28 00:10:47;;;;;;;7.00;6.30;;;;;;;20.79;100.00;100889.42;1675575;85;20919;-87
2021/08/28 00:13:14;;;;;;;7.22;6.28;;;;;;;20.75;100.00;100892.05;1675640;85;20966;-90
2021/08/28 00:15:41;;;;;;;7.40;6.67;;;;;;;20.69;100.00;100905.39;1675604;85;21139;-87
2021/08/28 00:18:10;;;;;;;11.88;6.62;;;;;;;20.63;100.00;100906.03;1675344;85;21457;-86
2021/08/28 00:20:37;;;;;;;12.07;8.23;;;;;;;20.59;100.00;100918.71;1675598;85;21644;-91
2021/08/28 00:23:05;;;;;;;22.73;10.28;;;;;;;20.56;100.00;100920.34;1656243;86;22423;-88
2021/08/28 00:25:34;;;;;;;20.52;11.50;;;;;;;20.53;100.00;100919.84;1656426;86;20958;-87
2021/08/28 00:28:01;;;;;;;29.55;13.60;;;;;;;20.50;100.00;100926.26;1656169;86;21813;-85
2021/08/28 00:30:27;;;;;;;25.32;13.28;;;;;;;20.49;100.00;100929.04;1703618;84;20985;-86
2021/08/28 00:32:55;;;;;;;25.65;11.00;;;;;;;20.46;100.00;100930.19;1680522;85;20985;-87
2021/08/28 00:35:21;;;;;;;17.23;8.63;;;;;;;20.46;100.00;100931.99;1656820;85;20968;-90
2021/08/28 00:37:49;;;;;;;14.28;7.67;;;;;;;20.46;100.00;100935.95;1680947;85;20986;-90
2021/08/28 00:40:17;;;;;;;11.35;6.55;;;;;;;20.44;100.00;100940.56;1680403;85;21181;-90
2021/08/28 00:42:48;;;;;;;12.15;6.35;;;;;;;20.39;100.00;100943.66;1657301;85;21519;-88
2021/08/28 00:45:14;;;;;;;11.18;6.75;;;;;;;20.36;100.00;100944.47;1680532;85;20988;-86
2021/08/28 00:48:01;;;;;;;12.60;8.23;;;;;;;20.33;100.00;100942.14;1680390;85;21516;-87
2021/08/28 00:50:29;;;;;;;17.32;9.35;;;;;;;20.32;100.00;100951.89;1674908;85;21413;-88
2021/08/28 00:52:56;;;;;;;11.93;9.15;;;;;;;20.31;100.00;100953.34;1680306;84;21544;-89
2021/08/28 00:55:25;;;;;;;19.80;9.53;;;;;;;20.30;100.00;100957.78;1680420;85;21005;-90
2021/08/28 00:57:53;;;;;;;16.40;9.68;;;;;;;20.26;100.00;100958.23;1680467;85;21512;-88
2021/08/28 01:00:20;;;;;;;16.73;9.48;;;;;;;20.24;100.00;100964.97;1680468;85;21048;-88
2021/08/28 01:02:48;;;;;;;22.82;12.20;;;;;;;20.22;100.00;100966.95;1680441;85;21543;-87
2021/08/28 01:05:26;;;;;;;15.23;10.43;;;;;;;20.21;100.00;100979.78;1680403;85;21126;-87
2021/08/28 01:08:06;;;;;;;14.68;10.65;;;;;;;20.20;100.00;100982.06;1680412;85;20977;-86
2021/08/28 01:11:17;;;;;;;20.27;12.18;;;;;;;20.21;100.00;100984.22;1622253;88;21058;-89
2021/08/28 01:13:57;;;;;;;23.07;13.85;;;;;;;20.22;100.00;100990.66;1622375;87;21596;-90
2021/08/28 01:16:25;;;;;;;21.07;13.62;;;;;;;20.24;100.00;100991.81;1657120;85;21048;-90
2021/08/28 01:18:54;;;;;;;29.18;15.32;;;;;;;20.21;100.00;100997.39;1634995;85;21144;-90
2021/08/28 01:21:29;;;;;;;32.33;14.70;;;;;;;20.17;100.00;100994.72;1688087;82;21196;-89
2021/08/28 01:24:04;;;;;;;29.18;14.28;;;;;;;20.16;100.00;101000.51;1663731;84;21007;-90
2021/08/28 01:26:57;;;;;;;27.35;14.03;;;;;;;20.15;100.00;101001.48;1698149;84;21485;-88
2021/08/28 01:29:28;;;;;;;20.55;12.95;;;;;;;20.16;100.00;100999.68;1695938;84;21077;-86
2021/08/28 01:31:55;;;;;;;13.65;9.75;;;;;;;20.14;100.00;100994.55;1685354;84;21181;-88
2021/08/28 01:34:23;;;;;;;15.10;8.48;;;;;;;20.14;100.00;100991.91;1707738;84;21010;-88
2021/08/28 01:36:50;;;;;;;11.68;8.68;;;;;;;20.14;100.00;100993.23;1707797;84;21603;-89
2021/08/28 01:39:35;;;;;;;13.38;8.95;;;;;;;20.15;100.00;100992.75;1707481;84;21041;-86
2021/08/28 01:42:03;;;;;;;13.45;8.78;;;;;;;20.17;100.00;100990.28;1685215;84;20978;-89
2021/08/28 01:44:32;;;;;;;13.80;9.40;;;;;;;20.19;100.00;100991.47;1707547;84;21108;-87
2021/08/28 01:46:59;;;;;;;11.30;9.20;;;;;;;20.20;100.00;100987.34;1707469;84;21594;-86
2021/08/28 01:49:26;;;;;;;13.85;9.43;;;;;;;20.22;100.00;100991.15;1685440;84;21587;-85
2021/08/28 01:51:52;;;;;;;17.10;10.38;;;;;;;20.26;100.00;101000.41;1685443;84;21097;-85
2021/08/28 01:54:24;;;;;;;20.68;11.63;;;;;;;20.31;100.00;100995.52;1707200;82;21612;-85
2021/08/28 01:56:51;;;;;;;16.32;10.55;;;;;;;20.35;100.00;101002.97;1707730;84;21119;-84
2021/08/28 01:59:18;;;;;;;16.02;11.15;;;;;;;20.40;100.00;100995.41;1707665;84;21032;-85
2021/08/28 02:01:50;;;;;;;18.73;12.10;;;;;;;20.46;100.00;100996.09;1687183;84;20860;-86
2021/08/28 02:04:17;;;;;;;20.65;12.95;;;;;;;20.52;100.00;100989.36;1707570;84;21528;-84
2021/08/28 02:07:00;;;;;;;16.67;12.40;;;;;;;20.56;100.00;101000.77;1707843;84;21006;-84
2021/08/28 02:09:45;;;;;;;25.17;13.00;;;;;;;20.61;100.00;100998.99;1707697;84;21100;-87
2021/08/28 02:12:29;;;;;;;20.77;13.70;;;;;;;20.67;100.00;100996.20;1707497;84;21028;-90
2021/08/28 02:15:14;;;;;;;25.37;12.68;;;;;;;20.69;100.00;101002.97;1707591;84;21555;-88
2021/08/28 02:17:58;;;;;;;21.77;12.35;;;;;;;20.68;100.00;100999.98;1707641;84;21078;-85
2021/08/28 02:20:29;;;;;;;20.48;13.38;;;;;;;20.68;100.00;101003.95;1693432;84;20955;-85
2021/08/28 02:23:03;;;;;;;22.52;13.40;;;;;;;20.68;100.00;100997.35;1704898;83;21804;-85
2021/08/28 02:26:04;;;;;;;21.30;13.48;;;;;;;20.70;100.00;100998.04;1704669;84;21501;-85
2021/08/28 02:28:37;;;;;;;21.55;13.20;;;;;;;20.74;100.00;100998.55;1704318;84;20985;-87
2021/08/28 02:31:06;;;;;;;19.42;12.65;;;;;;;20.78;100.00;101002.02;1704663;84;21557;-88
2021/08/28 02:33:38;;;;;;;16.20;11.88;;;;;;;20.81;100.00;101003.02;1704021;83;20860;-87
2021/08/28 02:36:07;;;;;;;17.95;11.90;;;;;;;20.84;100.00;101004.02;1704657;84;21156;-87
2021/08/28 02:38:36;;;;;;;20.52;11.33;;;;;;;20.84;100.00;100999.23;1704648;84;20985;-88
2021/08/28 02:41:04;;;;;;;20.52;11.33;;;;;;;20.81;100.00;101004.83;1704629;84;21081;-88
2021/08/28 02:43:31;;;;;;;18.10;11.48;;;;;;;20.78;100.00;101004.66;1704998;84;21019;-91
2021/08/28 02:45:59;;;;;;;21.80;13.43;;;;;;;20.74;100.00;101012.54;1705300;84;21664;-90
2021/08/28 02:48:30;;;;;;;16.67;11.50;;;;;;;20.71;100.00;101027.36;1678174;84;21147;-88
2021/08/28 02:51:00;;;;;;;17.10;10.93;;;;;;;20.64;100.00;101028.17;1704926;84;20863;-85
2021/08/28 02:53:27;;;;;;;16.62;11.10;;;;;;;20.56;100.00;101027.14;1705010;84;21066;-85
2021/08/28 02:55:55;;;;;;;14.83;11.18;;;;;;;20.53;100.00;101027.45;1704950;84;21504;-86
2021/08/28 02:58:22;;;;;;;19.02;12.05;;;;;;;20.54;100.00;101037.52;1705025;84;21102;-88
2021/08/28 03:00:49;;;;;;;20.35;13.55;;;;;;;20.53;100.00;101041.13;1704670;84;21804;-90
2021/08/28 03:03:17;;;;;;;22.67;13.70;;;;;;;20.50;100.00;101035.67;1678365;84;21016;-87
2021/08/28 03:05:49;;;;;;;20.57;13.08;;;;;;;20.48;100.00;101041.61;1679396;84;20994;-86
2021/08/28 03:08:17;;;;;;;27.00;14.03;;;;;;;20.48;100.00;101038.14;1704999;84;20984;-86
2021/08/28 03:10:49;;;;;;;23.77;13.53;;;;;;;20.47;100.00;101038.62;1705255;84;20982;-86
2021/08/28 03:13:18;;;;;;;17.32;12.00;;;;;;;20.49;100.00;101041.92;1678876;84;20977;-83
2021/08/28 03:15:48;;;;;;;25.27;12.13;;;;;;;20.48;100.00;101039.45;1704995;84;20903;-87
2021/08/28 03:18:19;;;;;;;15.25;12.47;;;;;;;20.45;100.00;101050.31;1704572;84;20998;-83
2021/08/28 03:20:48;;;;;;;16.48;11.73;;;;;;;20.40;100.00;101045.98;1704697;84;20999;-84
2021/08/28 03:23:18;;;;;;;15.35;10.88;;;;;;;20.36;100.00;101042.83;1704460;84;21002;-85
2021/08/28 03:25:47;;;;;;;14.60;10.53;;;;;;;20.34;100.00;101043.48;1678179;84;21575;-84
2021/08/28 03:28:14;;;;;;;15.95;10.88;;;;;;;20.33;100.00;101040.50;1704581;84;20998;-83
2021/08/28 03:30:44;;;;;;;14.13;11.08;;;;;;;20.32;100.00;101040.19;1704708;84;20926;-85
2021/08/28 03:33:13;;;;;;;16.73;11.03;;;;;;;20.30;100.00;101035.54;1704662;84;21778;-87
2021/08/28 03:35:41;;;;;;;14.87;10.32;;;;;;;20.29;100.00;101043.13;1679106;84;20960;-87
2021/08/28 03:38:09;;;;;;;16.40;11.20;;;;;;;20.26;100.00;101044.73;1704860;84;21804;-86
2021/08/28 03:40:38;;;;;;;17.45;11.97;;;;;;;20.24;100.00;101049.30;1679229;84;21022;-88
2021/08/28 03:43:06;;;;;;;19.85;13.28;;;;;;;20.23;100.00;101054.75;1704876;84;21010;-86
2021/08/28 03:45:33;;;;;;;25.70;12.05;;;;;;;20.20;100.00;101061.13;1678393;84;21556;-90
2021/08/28 03:48:01;;;;;;;23.27;12.40;;;;;;;20.21;100.00;101067.23;1705141;84;20899;-87
2021/08/28 03:50:28;;;;;;;23.07;11.75;;;;;;;20.22;100.00;101071.53;1704698;84;21127;-85
2021/08/28 03:53:00;;;;;;;20.50;11.45;;;;;;;20.21;100.00;101061.47;1704398;84;21406;-83
2021/08/28 03:55:27;;;;;;;16.00;10.80;;;;;;;20.21;100.00;101061.95;1704666;84;21010;-85
2021/08/28 03:57:54;;;;;;;16.45;12.45;;;;;;;20.22;100.00;101062.30;1704508;84;21513;-86
2021/08/28 04:00:22;;;;;;;20.80;12.23;;;;;;;20.22;100.00;101071.05;1704576;84;21726;-85
2021/08/28 04:02:51;;;;;;;17.32;11.65;;;;;;;20.23;100.00;101068.72;1704589;84;21095;-84
2021/08/28 04:05:20;;;;;;;13.80;10.25;;;;;;;20.24;100.00;101066.44;1704735;84;20942;-87
2021/08/28 04:07:48;;;;;;;16.25;10.10;;;;;;;20.25;100.00;101072.53;1704876;84;21470;-87
2021/08/28 04:10:15;;;;;;;18.15;10.30;;;;;;;20.26;100.00;101078.16;1704525;84;21050;-88
2021/08/28 04:12:41;;;;;;;13.18;9.70;;;;;;;20.27;100.00;101087.24;1704690;84;21002;-88
2021/08/28 04:15:10;;;;;;;16.37;9.70;;;;;;;20.31;100.00;101086.45;1704680;84;21122;-88
2021/08/28 04:17:39;;;;;;;13.35;9.28;;;;;;;20.35;100.00;101080.73;1687377;84;20891;-86
2021/08/28 04:20:07;;;;;;;14.47;9.23;;;;;;;20.40;100.00;101077.13;1704716;84;21011;-84
2021/08/28 04:22:34;;;;;;;16.27;10.00;;;;;;;20.46;100.00;101078.31;1704428;83;21066;-84
2021/08/28 04:25:11;;;;;;;11.53;9.20;;;;;;;20.51;100.00;101077.37;1704596;84;20879;-85
2021/08/28 04:27:59;;;;;;;14.23;8.70;;;;;;;20.55;100.00;101077.37;1704554;84;21030;-84
2021/08/28 04:30:29;;;;;;;12.63;8.30;;;;;;;20.58;100.00;101079.22;1703102;84;21561;-88
2021/08/28 04:32:56;;;;;;;13.72;8.63;;;;;;;20.64;100.00;101078.27;1704566;84;21010;-84
2021/08/28 04:35:23;;;;;;;11.60;8.15;;;;;;;20.68;100.00;101081.75;1704434;84;21153;-85
2021/08/28 04:37:51;;;;;;;13.68;9.20;;;;;;;20.74;100.00;101077.16;1704703;84;21003;-84
2021/08/28 04:40:18;;;;;;;10.25;8.00;;;;;;;20.80;100.00;101080.52;1704452;84;21122;-83
2021/08/28 04:42:45;;;;;;;9.80;8.63;;;;;;;20.85;100.00;101082.67;1704439;84;21525;-84
2021/08/28 04:45:14;;;;;;;11.78;7.80;;;;;;;20.87;100.00;101080.20;1704354;84;20997;-84
2021/08/28 04:47:49;;;;;;;9.83;7.55;;;;;;;20.90;100.00;101085.16;1670928;84;20910;-84
2021/08/28 04:50:17;;;;;;;9.48;7.30;;;;;;;20.93;100.00;101090.64;1704678;84;21006;-87
2021/08/28 04:52:44;;;;;;;14.87;9.90;;;;;;;20.99;100.00;101084.73;1704781;84;21505;-83
2021/08/28 04:55:12;;;;;;;10.65;8.35;;;;;;;21.03;100.00;101082.09;1704456;84;20958;-84
2021/08/28 04:57:39;;;;;;;11.03;7.80;;;;;;;21.09;100.00;101079.67;1704547;84;21011;-83
2021/08/28 05:00:07;;;;;;;10.00;7.42;;;;;;;21.13;100.00;101086.78;1704556;84;21553;-88
2021/08/28 05:02:53;;;;;;;8.20;6.30;;;;;;;21.20;100.00;101089.61;1647143;87;21005;-85
2021/08/28 05:05:21;;;;;;;11.20;7.15;;;;;;;21.26;100.00;101092.94;1646928;87;21150;-86
2021/08/28 05:07:47;;;;;;;8.88;7.65;;;;;;;21.29;100.00;101089.48;1666869;84;20895;-87
2021/08/28 05:10:15;;;;;;;10.93;7.28;;;;;;;21.35;100.00;101091.48;1704636;84;20958;-85
2021/08/28 05:12:43;;;;;;;15.68;10.18;;;;;;;21.42;100.00;101092.50;1704684;84;21300;-84
2021/08/28 05:15:11;;;;;;;10.50;8.25;;;;;;;21.53;99.96;101095.34;1704532;84;20991;-83
2021/08/28 05:17:49;;;;;;;8.53;6.03;;;;;;;21.61;98.68;101090.90;1704775;84;24046;-86
2021/08/28 05:20:18;;;;;;;8.75;6.37;;;;;;;21.72;97.10;101093.73;1704567;84;21121;-85
2021/08/28 05:22:46;;;;;;;9.45;6.75;;;;;;;21.80;96.19;101095.05;1639348;84;20990;-84
2021/08/28 05:25:25;;;;;;;6.35;5.37;;;;;;;21.90;95.34;101101.05;1646690;87;21081;-84
2021/08/28 05:27:54;;;;;;;9.05;5.45;;;;;;;22.00;93.65;101097.76;1704577;84;21676;-87
2021/08/28 05:30:21;;;;;;;7.55;5.33;;;;;;;22.12;91.45;101102.21;1704069;84;21141;-89
2021/08/28 05:32:50;;;;;;;10.15;6.58;;;;;;;22.19;89.02;101099.25;1704907;84;20864;-90
2021/08/28 05:35:17;;;;;;;9.65;6.60;;;;;;;22.22;87.46;101094.12;1704527;84;20996;-87
2021/08/28 05:37:46;;;;;;;12.47;7.65;;;;;;;22.21;86.92;101092.48;1700435;84;21006;-82
2021/08/28 05:40:19;;;;;;;13.43;6.72;;;;;;;22.21;86.95;101092.48;1702917;84;20958;-87
2021/08/28 05:42:43;;;;;;;11.10;5.40;;;;;;;22.16;85.79;101083.72;1704263;83;21134;-84
2021/08/28 05:45:11;;;;;;;7.03;6.08;;;;;;;22.14;85.21;101091.80;1704450;84;21450;-84
2021/08/28 05:47:38;;;;;;;9.60;5.75;;;;;;;22.12;85.47;101091.15;1704814;84;21054;-85
2021/08/28 05:50:08;;;;;;;6.67;5.53;;;;;;;22.12;84.58;101089.83;1704674;83;20990;-82
2021/08/28 05:52:35;;;;;;;7.35;5.50;;;;;;;22.12;83.77;101098.25;1704827;84;21085;-89
2021/08/28 05:55:05;;;;;;;6.53;5.45;;;;;;;22.12;83.35;101100.41;1704793;84;21114;-86
2021/08/28 05:57:32;;;;;;;9.20;5.20;;;;;;;22.12;82.85;101101.72;1704765;84;21042;-85
2021/08/28 05:59:59;;;;;;;5.83;5.10;;;;;;;22.14;82.26;101105.02;1704771;84;21097;-83
2021/08/28 06:02:26;;;;;;;8.03;5.47;;;;;;;22.17;82.14;101105.20;1704356;84;21683;-86
2021/08/28 06:04:53;;;;;;;7.17;5.83;;;;;;;22.21;82.06;101101.73;1704718;84;21093;-85
2021/08/28 06:07:22;;;;;;;6.67;5.28;;;;;;;22.23;81.26;101109.00;1699124;84;21119;-85
2021/08/28 06:10:09;;;;;;;9.00;5.47;;;;;;;22.25;80.23;101107.00;1642037;87;20890;-84
2021/08/28 06:12:44;;;;;;;8.50;5.60;;;;;;;22.28;80.20;101115.44;1645162;86;21039;-86
2021/08/28 06:15:29;;;;;;;6.37;5.08;;;;;;;22.34;79.84;101119.22;1675328;84;20950;-81
2021/08/28 06:18:00;;;;;;;7.22;5.50;;;;;;;22.40;78.70;101118.06;1703423;84;20923;-85
2021/08/28 06:20:27;;;;;;;5.70;5.20;;;;;;;22.47;78.48;101115.09;1704885;84;21804;-89
2021/08/28 06:22:54;;;;;;;8.80;6.10;;;;;;;22.57;77.60;101120.20;1702466;84;20990;-85
2021/08/28 06:25:23;;;;;;;7.37;5.10;;;;;;;22.69;77.08;101120.20;1689237;84;21561;-88
2021/08/28 06:27:52;;;;;;;6.22;5.20;;;;;;;22.81;76.33;101121.53;1689068;85;20978;-84
2021/08/28 06:30:20;;;;;;;8.23;5.40;;;;;;;22.96;74.88;101124.29;1689168;85;21443;-82
2021/08/28 06:32:47;;;;;;;7.33;5.62;;;;;;;23.10;74.70;101127.56;1689403;85;21147;-83
2021/08/28 06:35:15;;;;;;;6.72;5.60;;;;;;;23.25;74.76;101123.69;1689159;83;21502;-85
2021/08/28 06:37:43;;;;;;;11.10;5.58;;;;;;;23.41;73.68;101115.70;1689448;84;21003;-84
2021/08/28 06:40:28;;;;;;;8.85;6.05;;;;;;;23.53;72.35;101117.79;1689517;85;21490;-90
2021/08/28 06:43:13;;;;;;;8.15;5.53;;;;;;;23.64;71.88;101123.20;1689605;85;20971;-84
2021/08/28 06:45:53;;;;;;;7.83;5.42;;;;;;;23.72;71.82;101115.19;1652950;85;21112;-85
2021/08/28 06:48:40;;;;;;;14.38;6.15;;;;;;;23.76;71.18;101117.83;1689563;85;21002;-84
2021/08/28 06:51:25;;;;;;;12.03;6.17;;;;;;;23.77;70.98;101127.44;1689399;85;21002;-83
2021/08/28 06:54:11;;;;;;;9.70;5.78;;;;;;;23.77;71.29;101131.41;1689443;85;21014;-83
2021/08/28 06:56:41;;;;;;;8.88;5.45;;;;;;;23.78;70.97;101128.23;1686380;85;21010;-86
2021/08/28 06:59:25;;;;;;;7.87;6.15;;;;;;;23.80;70.58;101131.06;1686238;85;22801;-83
2021/08/28 07:01:53;;;;;;;8.20;5.67;;;;;;;23.86;70.41;101130.84;1687860;84;21019;-85
2021/08/28 07:04:36;;;;;;;6.75;5.75;;;;;;;23.93;70.43;101135.77;1689074;84;21526;-84
2021/08/28 07:07:23;;;;;;;8.28;6.42;;;;;;;24.03;70.28;101127.89;1688433;84;20947;-88
2021/08/28 07:09:50;;;;;;;12.37;5.72;;;;;;;24.18;69.04;101128.00;1689626;85;21091;-80
2021/08/28 07:12:17;;;;;;;7.60;5.83;;;;;;;24.30;68.54;101135.84;1689497;85;21800;-83
2021/08/28 07:14:44;;;;;;;6.60;5.53;;;;;;;24.39;68.50;101127.30;1689282;85;20975;-80
2021/08/28 07:17:13;;;;;;;5.55;5.05;;;;;;;24.45;68.00;101124.77;1688244;84;21564;-82
2021/08/28 07:19:40;;;;;;;7.70;5.53;;;;;;;24.49;66.84;101130.04;1689457;85;20956;-80
2021/08/28 07:22:07;;;;;;;15.55;6.95;;;;;;;24.53;67.10;101127.35;1689424;85;21062;-81
2021/08/28 07:24:34;;;;;;;6.90;6.17;;;;;;;24.63;67.32;101123.12;1699740;84;40054;-83
2021/08/28 07:27:03;;;;;;;8.53;5.60;;;;;;;24.76;66.95;101121.46;1704780;84;21049;-86
2021/08/28 07:29:32;;;;;;;12.68;6.83;;;;;;;24.92;66.42;101129.78;1700524;84;21512;-80
2021/08/28 07:32:00;;;;;;;9.35;5.53;;;;;;;25.10;65.31;101127.59;1704775;84;20911;-85
2021/08/28 07:34:27;;;;;;;9.20;5.62;;;;;;;25.31;64.07;101122.84;1704908;84;20998;-87
2021/08/28 07:36:55;;;;;;;7.67;5.92;;;;;;;25.53;63.95;101119.75;1704767;84;21168;-81
2021/08/28 07:39:22;;;;;;;6.30;5.70;;;;;;;25.71;63.36;101118.36;1704606;84;20965;-85
2021/08/28 07:41:48;;;;;;;7.10;5.90;;;;;;;25.82;62.32;101115.69;1704546;84;20955;-84
2021/08/28 07:44:16;;;;;;;7.00;5.65;;;;;;;25.90;62.03;101111.59;1704485;84;21493;-85
2021/08/28 07:46:45;;;;;;;7.72;5.90;;;;;;;25.98;62.08;101111.95;1704689;84;21090;-83
2021/08/28 07:49:20;;;;;;;7.30;5.65;;;;;;;26.06;62.12;101120.64;1704329;83;21802;-87
2021/08/28 07:51:47;;;;;;;9.20;5.95;;;;;;;26.12;62.05;101118.55;1703893;84;21015;-83
2021/08/28 07:54:14;;;;;;;7.28;6.03;;;;;;;26.21;62.08;101127.23;1704876;84;21054;-82
2021/08/28 07:56:41;;;;;;;6.10;5.50;;;;;;;26.32;61.58;101125.41;1704804;84;21574;-84
2021/08/28 07:59:10;;;;;;;7.78;6.03;;;;;;;26.39;61.74;101123.59;1704717;84;20931;-86
2021/08/28 08:01:36;;;;;;;9.35;6.22;;;;;;;26.44;61.21;101119.03;1705023;84;21137;-83
2021/08/28 08:04:03;;;;;;;10.35;6.65;;;;;;;26.49;60.97;101116.60;1704620;84;21062;-81
2021/08/28 08:06:48;;;;;;;7.70;5.95;;;;;;;26.61;61.12;101116.41;1704951;84;21045;-82
2021/08/28 08:09:22;;;;;;;7.42;6.67;;;;;;;26.70;60.06;101119.23;1670747;84;21050;-82
2021/08/28 08:12:09;;;;;;;9.13;6.22;;;;;;;26.71;60.10;101117.69;1704665;84;20863;-81
2021/08/28 08:14:54;;;;;;;10.23;5.90;;;;;;;26.76;59.95;101117.11;1705025;84;21150;-82
2021/08/28 08:17:39;;;;;;;7.15;6.28;;;;;;;26.81;60.10;101118.70;1704829;84;20931;-85
2021/08/28 08:20:11;;;;;;;8.70;6.50;;;;;;;26.77;59.97;101126.22;1703398;82;20953;-81
2021/08/28 08:22:57;;;;;;;8.60;6.55;;;;;;;26.73;59.76;101132.98;1704576;84;21054;-82
2021/08/28 08:25:27;;;;;;;7.92;6.35;;;;;;;26.77;60.58;101125.42;1678653;84;21037;-83
2021/08/28 08:28:11;;;;;;;9.25;6.85;;;;;;;26.85;59.89;101124.45;1572217;90;21188;-82
2021/08/28 08:30:49;;;;;;;7.97;6.50;;;;;;;26.87;59.53;101124.57;1642845;85;21583;-81
2021/08/28 08:33:18;;;;;;;9.58;7.03;;;;;;;26.89;59.99;101122.55;1681200;85;21564;-81
2021/08/28 08:35:44;;;;;;;10.78;6.53;;;;;;;26.90;59.59;101126.84;1657693;85;21001;-85
2021/08/28 08:38:11;;;;;;;10.50;6.42;;;;;;;26.90;59.61;101117.52;1681176;85;20964;-82
2021/08/28 08:40:38;;;;;;;8.48;6.65;;;;;;;26.93;59.75;101116.33;1681260;85;21977;-83
2021/08/28 08:43:07;;;;;;;7.08;6.22;;;;;;;26.97;59.80;101113.56;1680863;85;21439;-83
2021/08/28 08:45:34;;;;;;;8.28;6.62;;;;;;;27.06;59.43;101111.08;1681346;85;21570;-85
2021/08/28 08:48:01;;;;;;;8.08;6.75;;;;;;;27.20;59.30;101119.42;1681229;85;20906;-81
2021/08/28 08:50:29;;;;;;;9.13;6.40;;;;;;;27.32;58.23;101107.99;1680925;85;21009;-85
2021/08/28 08:53:03;;;;;;;7.20;6.42;;;;;;;27.33;58.08;101104.31;1681189;85;21067;-83
2021/08/28 08:55:32;;;;;;;7.62;6.50;;;;;;;27.41;58.66;101104.63;1670083;85;20934;-83
2021/08/28 08:57:59;;;;;;;6.67;6.08;;;;;;;27.51;58.04;101100.28;1681270;85;20910;-83
2021/08/28 09:00:27;;;;;;;9.58;6.97;;;;;;;27.63;57.73;101102.16;1680969;85;20989;-82
2021/08/28 09:03:10;;;;;;;8.48;6.55;;;;;;;27.72;57.14;101102.31;1676994;85;20890;-82
2021/08/28 09:05:39;;;;;;;7.35;6.47;;;;;;;27.79;57.01;101099.12;1680882;85;21051;-86
2021/08/28 09:08:06;;;;;;;7.08;6.37;;;;;;;27.91;57.11;101098.02;1681100;85;20965;-81
2021/08/28 09:10:32;;;;;;;7.45;6.60;;;;;;;28.08;56.97;101095.28;1681065;85;21036;-83
2021/08/28 09:13:19;;;;;;;10.55;7.12;;;;;;;28.21;56.22;101100.63;1680836;85;21432;-83
2021/08/28 09:15:51;;;;;;;10.35;6.87;;;;;;;28.29;56.60;101097.77;1681055;85;20945;-86
2021/08/28 09:18:17;;;;;;;7.17;6.47;;;;;;;28.38;56.53;101099.70;1679890;84;21509;-86
2021/08/28 09:20:45;;;;;;;12.43;7.12;;;;;;;28.43;56.28;101091.08;1681149;85;20933;-82
2021/08/28 09:23:16;;;;;;;8.30;6.40;;;;;;;28.42;55.84;101088.09;1681076;85;20882;-82
2021/08/28 09:25:45;;;;;;;;;;;;;;;28.37;56.01;101082.03;1691991;82;20990;-83
2021/08/28 09:28:12;;;;;;;6.05;5.55;;;;;;;28.33;55.83;101086.98;1690051;85;20117;-81
2021/08/28 09:30:43;;;;;;;7.53;6.33;;;;;;;28.33;56.22;101083.49;1690489;85;21099;-82
2021/08/28 09:33:23;;;;;;;7.40;6.62;;;;;;;28.48;56.19;101084.08;1690094;85;20983;-81
2021/08/28 09:35:51;;;;;;;6.83;6.17;;;;;;;28.53;55.92;101083.44;1690235;85;20944;-85
2021/08/28 09:38:20;;;;;;;7.72;5.90;;;;;;;28.63;55.18;101086.00;1690175;85;20975;-84
2021/08/28 09:40:58;;;;;;;10.68;7.17;;;;;;;28.68;54.73;101081.41;1690729;85;20986;-82
2021/08/28 09:43:26;;;;;;;7.60;6.08;;;;;;;28.72;53.91;101084.77;1669031;85;21067;-81
2021/08/28 09:45:53;;;;;;;7.83;6.65;;;;;;;28.93;54.02;101089.55;1690230;84;20978;-83
2021/08/28 09:48:29;;;;;;;7.45;6.65;;;;;;;29.10;53.34;101079.50;1690266;85;20955;-82
2021/08/28 09:50:56;;;;;;;6.65;6.10;;;;;;;29.06;52.56;101080.98;1690384;85;20944;-82
2021/08/28 09:53:28;;;;;;;7.00;6.28;;;;;;;29.03;52.95;101078.73;1690106;85;21078;-81
2021/08/28 09:55:57;;;;;;;6.47;5.87;;;;;;;29.08;52.00;101077.56;1690022;85;21977;-82
2021/08/28 09:58:26;;;;;;;7.25;6.53;;;;;;;29.09;51.99;101066.37;1689965;85;20904;-81
2021/08/28 10:00:53;;;;;;;6.58;5.92;;;;;;;29.22;52.14;101071.66;1690349;85;21055;-82
2021/08/28 10:03:28;;;;;;;9.98;5.55;;;;;;;29.44;52.14;101074.86;1690118;85;20888;-82
2021/08/28 10:05:55;;;;;;;6.47;5.72;;;;;;;29.79;51.21;101070.21;1690227;85;21023;-86
2021/08/28 10:08:22;;;;;;;9.08;5.90;;;;;;;29.95;50.39;101069.40;1689999;85;21169;-93
2021/08/28 10:10:49;;;;;;;11.10;6.47;;;;;;;29.95;50.20;101066.72;1690572;84;20864;-84
2021/08/28 10:13:17;;;;;;;9.10;5.92;;;;;;;30.11;48.55;101059.48;1690055;85;21097;-82
2021/08/28 10:15:48;;;;;;;10.70;6.30;;;;;;;30.64;48.34;101052.59;1668887;85;21024;-82
2021/08/28 10:18:14;;;;;;;8.50;6.45;;;;;;;31.23;47.34;101049.74;1690250;85;20923;-83
2021/08/28 10:20:41;;;;;;;8.38;6.15;;;;;;;31.28;47.00;101049.34;1690486;84;21127;-82
2021/08/28 10:23:08;;;;;;;8.93;5.90;;;;;;;31.32;47.01;101045.69;1690047;85;21542;-81
2021/08/28 10:25:40;;;;;;;8.43;6.78;;;;;;;31.65;46.94;101052.78;1700863;84;21061;-83
2021/08/28 10:28:07;;;;;;;6.03;5.50;;;;;;;31.97;46.18;101052.75;1704621;84;20959;-83
2021/08/28 10:30:35;;;;;;;8.30;5.97;;;;;;;32.10;44.83;101054.42;1704830;84;21001;-82
2021/08/28 10:33:02;;;;;;;6.00;5.40;;;;;;;32.06;44.80;101057.30;1704893;84;21197;-84
2021/08/28 10:35:30;;;;;;;7.00;6.30;;;;;;;32.07;44.71;101058.13;1704567;84;20987;-84
2021/08/28 10:37:56;;;;;;;9.38;6.60;;;;;;;31.89;45.23;101054.45;1704699;84;20982;-84
2021/08/28 10:40:38;;;;;;;10.85;6.87;;;;;;;31.76;45.49;101057.34;1704859;84;20993;-89
2021/08/28 10:43:06;;;;;;;6.70;5.78;;;;;;;31.54;45.40;101061.59;1678962;84;21038;-87
2021/08/28 10:45:40;;;;;;;7.17;6.47;;;;;;;31.09;45.72;101058.99;1678854;84;21099;-86
2021/08/28 10:48:25;;;;;;;6.58;5.97;;;;;;;30.80;46.24;101057.36;1705018;84;20959;-86
2021/08/28 10:50:54;;;;;;;6.97;6.37;;;;;;;30.69;46.83;101054.10;1704998;84;21479;-84
2021/08/28 10:53:21;;;;;;;7.92;5.75;;;;;;;30.65;46.52;101050.22;1704684;84;21541;-84
2021/08/28 10:55:48;;;;;;;8.10;6.60;;;;;;;30.67;46.56;101047.30;1704816;84;20895;-83
2021/08/28 10:58:19;;;;;;;6.35;5.75;;;;;;;30.61;45.76;101052.22;1704544;84;21204;-85
2021/08/28 11:00:50;;;;;;;7.80;6.10;;;;;;;30.35;46.27;101047.92;1704810;84;21509;-85
2021/08/28 11:03:30;;;;;;;7.05;5.90;;;;;;;30.28;46.49;101036.48;1704776;84;21043;-87
2021/08/28 11:06:19;;;;;;;6.92;6.10;;;;;;;30.24;46.83;101031.26;1704690;84;20907;-82
2021/08/28 11:09:02;;;;;;;7.10;6.40;;;;;;;30.23;47.08;101026.42;1704704;84;20998;-82
2021/08/28 11:11:38;;;;;;;6.33;5.83;;;;;;;30.25;47.57;101030.23;1704649;84;21149;-82
2021/08/28 11:14:10;;;;;;;8.30;5.97;;;;;;;30.42;48.18;101029.45;1704638;84;20986;-83
2021/08/28 11:16:46;;;;;;;8.65;6.72;;;;;;;30.60;47.16;101026.48;1704754;84;21061;-81
2021/08/28 11:19:31;;;;;;;7.85;6.20;;;;;;;30.65;47.48;101018.07;1704583;84;21045;-87
2021/08/28 11:21:58;;;;;;;8.73;6.03;;;;;;;30.71;47.35;101017.17;1704756;84;21478;-83
2021/08/28 11:24:27;;;;;;;6.10;5.50;;;;;;;30.76;46.32;101019.19;1704888;83;21152;-85
2021/08/28 11:26:57;;;;;;;6.70;6.00;;;;;;;30.85;45.91;101021.86;1704573;84;21022;-82
2021/08/28 11:29:33;;;;;;;9.55;6.28;;;;;;;30.93;45.23;101014.83;1704554;84;21659;-83
2021/08/28 11:32:21;;;;;;;9.88;5.40;;;;;;;30.95;45.57;101016.27;1704689;84;20974;-82
2021/08/28 11:34:54;;;;;;;7.30;5.80;;;;;;;31.02;45.43;101013.50;1704851;84;20919;-84